sensor_id;sensor_type;location;lat;lon;timestamp;P1;durP1;ratioP1;P2;durP2;ratioP2
26271;SDS011;13997;48.902;12.472;2023-06-22T00:01:04;21.52;;;7.78;;
26271;SDS011;13997;48.902;12.472;2023-06-22T00:03:30;16.30;;;6.75;;
26271;SDS011;13997;48.902;12.472;2023-06-22T00:05:56;12.32;;;6.72;;
26271;SDS011;13997;48.902;12.472;2023-06-22T00:08:21;12.65;;;6.22;;
26271;SDS011;13997;48.902;12.472;2023-06-22T00:10:47;10.00;;;6.57;;
26271;SDS011;13997;48.902;12.472;2023-06-22T00:13:13;13.07;;;6.35;;
26271;SDS011;13997;48.902;12.472;2023-06-22T00:15:39;13.40;;;7.07;;
26271;SDS011;13997;48.902;12.472;2023-06-22T00:18:06;10.48;;;5.82;;
26271;SDS011;13997;48.902;12.472;2023-06-22T00:20:33;10.48;;;6.15;;
26271;SDS011;13997;48.902;12.472;2023-06-22T00:23:02;12.30;;;6.47;;
26271;SDS011;13997;48.902;12.472;2023-06-22T00:28:03;16.27;;;6.70;;
26271;SDS011;13997;48.902;12.472;2023-06-22T00:30:30;14.68;;;7.18;;
26271;SDS011;13997;48.902;12.472;2023-06-22T00:32:56;22.00;;;7.30;;
26271;SDS011;13997;48.902;12.472;2023-06-22T00:35:23;12.52;;;6.47;;
26271;SDS011;13997;48.902;12.472;2023-06-22T00:37:54;10.53;;;6.47;;
26271;SDS011;13997;48.902;12.472;2023-06-22T00:40:25;16.25;;;7.32;;
26271;SDS011;13997;48.902;12.472;2023-06-22T00:42:51;12.13;;;7.88;;
26271;SDS011;13997;48.902;12.472;2023-06-22T00:45:17;20.50;;;8.55;;
26271;SDS011;13997;48.902;12.472;2023-06-22T00:47:42;18.83;;;9.05;;
26271;SDS011;13997;48.902;12.472;2023-06-22T00:50:09;14.38;;;9.27;;
26271;SDS011;13997;48.902;12.472;2023-06-22T00:52:43;17.50;;;9.90;;
26271;SDS011;13997;48.902;12.472;2023-06-22T00:55:09;15.98;;;9.02;;
26271;SDS011;13997;48.902;12.472;2023-06-22T00:57:35;23.27;;;9.20;;
26271;SDS011;13997;48.902;12.472;2023-06-22T01:00:02;13.70;;;8.43;;
26271;SDS011;13997;48.902;12.472;2023-06-22T01:02:33;19.02;;;9.25;;
26271;SDS011;13997;48.902;12.472;2023-06-22T01:04:59;18.45;;;9.98;;
26271;SDS011;13997;48.902;12.472;2023-06-22T01:10:28;16.88;;;9.13;;
26271;SDS011;13997;48.902;12.472;2023-06-22T01:13:28;19.05;;;7.90;;
26271;SDS011;13997;48.902;12.472;2023-06-22T01:16:03;18.37;;;9.60;;
26271;SDS011;13997;48.902;12.472;2023-06-22T01:18:34;18.30;;;10.40;;
26271;SDS011;13997;48.902;12.472;2023-06-22T01:21:03;21.70;;;10.98;;
26271;SDS011;13997;48.902;12.472;2023-06-22T01:23:36;29.10;;;13.15;;
26271;SDS011;13997;48.902;12.472;2023-06-22T01:31:23;29.67;;;14.07;;
26271;SDS011;13997;48.902;12.472;2023-06-22T01:33:54;28.05;;;14.95;;
26271;SDS011;13997;48.902;12.472;2023-06-22T01:36:23;22.50;;;13.50;;
26271;SDS011;13997;48.902;12.472;2023-06-22T01:38:50;28.88;;;13.88;;
26271;SDS011;13997;48.902;12.472;2023-06-22T01:41:16;30.85;;;14.90;;
26271;SDS011;13997;48.902;12.472;2023-06-22T01:43:42;27.17;;;13.70;;
26271;SDS011;13997;48.902;12.472;2023-06-22T01:46:10;22.35;;;11.80;;
26271;SDS011;13997;48.902;12.472;2023-06-22T01:48:37;23.73;;;11.82;;
26271;SDS011;13997;48.902;12.472;2023-06-22T01:51:04;22.35;;;11.77;;
26271;SDS011;13997;48.902;12.472;2023-06-22T01:53:30;19.15;;;11.05;;
26271;SDS011;13997;48.902;12.472;2023-06-22T01:55:56;24.27;;;10.85;;
26271;SDS011;13997;48.902;12.472;2023-06-22T01:58:26;19.98;;;10.70;;
26271;SDS011;13997;48.902;12.472;2023-06-22T02:03:31;20.10;;;10.75;;
26271;SDS011;13997;48.902;12.472;2023-06-22T02:06:05;18.55;;;11.32;;
26271;SDS011;13997;48.902;12.472;2023-06-22T02:08:41;24.15;;;11.90;;
26271;SDS011;13997;48.902;12.472;2023-06-22T02:11:12;28.25;;;11.88;;
26271;SDS011;13997;48.902;12.472;2023-06-22T02:13:40;21.80;;;10.95;;
26271;SDS011;13997;48.902;12.472;2023-06-22T02:16:08;22.08;;;11.65;;
26271;SDS011;13997;48.902;12.472;2023-06-22T02:18:37;22.23;;;11.10;;
26271;SDS011;13997;48.902;12.472;2023-06-22T02:21:05;21.30;;;10.23;;
26271;SDS011;13997;48.902;12.472;2023-06-22T02:23:30;22.25;;;10.07;;
26271;SDS011;13997;48.902;12.472;2023-06-22T02:25:57;16.80;;;9.18;;
26271;SDS011;13997;48.902;12.472;2023-06-22T02:28:23;23.38;;;10.45;;
26271;SDS011;13997;48.902;12.472;2023-06-22T02:30:49;17.98;;;8.98;;
26271;SDS011;13997;48.902;12.472;2023-06-22T02:33:14;21.20;;;9.20;;
26271;SDS011;13997;48.902;12.472;2023-06-22T02:35:40;20.65;;;9.90;;
26271;SDS011;13997;48.902;12.472;2023-06-22T02:38:10;15.33;;;7.83;;
26271;SDS011;13997;48.902;12.472;2023-06-22T02:40:36;17.38;;;8.55;;
26271;SDS011;13997;48.902;12.472;2023-06-22T02:43:01;13.60;;;7.65;;
26271;SDS011;13997;48.902;12.472;2023-06-22T02:45:27;19.25;;;7.97;;
26271;SDS011;13997;48.902;12.472;2023-06-22T02:47:53;15.57;;;8.30;;
26271;SDS011;13997;48.902;12.472;2023-06-22T02:50:19;20.08;;;7.82;;
26271;SDS011;13997;48.902;12.472;2023-06-22T02:52:45;14.48;;;7.43;;
26271;SDS011;13997;48.902;12.472;2023-06-22T02:55:11;19.05;;;7.22;;
26271;SDS011;13997;48.902;12.472;2023-06-22T02:57:36;18.85;;;7.57;;
26271;SDS011;13997;48.902;12.472;2023-06-22T03:00:03;22.80;;;8.30;;
26271;SDS011;13997;48.902;12.472;2023-06-22T03:02:43;13.73;;;7.55;;
26271;SDS011;13997;48.902;12.472;2023-06-22T03:05:09;20.60;;;7.97;;
26271;SDS011;13997;48.902;12.472;2023-06-22T03:07:41;15.95;;;8.10;;
26271;SDS011;13997;48.902;12.472;2023-06-22T03:10:10;22.35;;;8.18;;
26271;SDS011;13997;48.902;12.472;2023-06-22T03:12:36;16.27;;;6.85;;
26271;SDS011;13997;48.902;12.472;2023-06-22T03:15:03;18.33;;;7.93;;
26271;SDS011;13997;48.902;12.472;2023-06-22T03:17:30;18.58;;;7.20;;
26271;SDS011;13997;48.902;12.472;2023-06-22T03:19:56;12.75;;;7.60;;
26271;SDS011;13997;48.902;12.472;2023-06-22T03:22:21;17.30;;;7.55;;
26271;SDS011;13997;48.902;12.472;2023-06-22T03:24:47;14.52;;;7.30;;
26271;SDS011;13997;48.902;12.472;2023-06-22T03:27:12;16.52;;;7.28;;
26271;SDS011;13997;48.902;12.472;2023-06-22T03:29:38;14.05;;;6.75;;
26271;SDS011;13997;48.902;12.472;2023-06-22T03:32:04;26.25;;;6.72;;
26271;SDS011;13997;48.902;12.472;2023-06-22T03:34:31;23.65;;;6.75;;
26271;SDS011;13997;48.902;12.472;2023-06-22T03:36:58;27.00;;;7.35;;
26271;SDS011;13997;48.902;12.472;2023-06-22T03:39:24;20.23;;;7.05;;
26271;SDS011;13997;48.902;12.472;2023-06-22T03:41:50;24.08;;;7.68;;
26271;SDS011;13997;48.902;12.472;2023-06-22T03:44:15;32.70;;;8.25;;
26271;SDS011;13997;48.902;12.472;2023-06-22T03:46:41;33.67;;;10.10;;
26271;SDS011;13997;48.902;12.472;2023-06-22T03:49:06;26.40;;;8.30;;
26271;SDS011;13997;48.902;12.472;2023-06-22T03:51:32;31.27;;;9.23;;
26271;SDS011;13997;48.902;12.472;2023-06-22T03:53:58;23.25;;;8.95;;
26271;SDS011;13997;48.902;12.472;2023-06-22T03:56:23;22.98;;;7.85;;
26271;SDS011;13997;48.902;12.472;2023-06-22T03:58:49;15.48;;;7.30;;
26271;SDS011;13997;48.902;12.472;2023-06-22T04:01:14;14.32;;;7.57;;
26271;SDS011;13997;48.902;12.472;2023-06-22T04:03:41;13.35;;;7.22;;
26271;SDS011;13997;48.902;12.472;2023-06-22T04:06:07;12.80;;;7.78;;
26271;SDS011;13997;48.902;12.472;2023-06-22T04:08:33;14.68;;;7.63;;
26271;SDS011;13997;48.902;12.472;2023-06-22T04:10:59;11.68;;;7.60;;
26271;SDS011;13997;48.902;12.472;2023-06-22T04:13:24;14.50;;;7.65;;
26271;SDS011;13997;48.902;12.472;2023-06-22T04:15:50;14.32;;;6.50;;
26271;SDS011;13997;48.902;12.472;2023-06-22T04:18:15;13.75;;;6.78;;
26271;SDS011;13997;48.902;12.472;2023-06-22T04:20:41;14.63;;;7.15;;
26271;SDS011;13997;48.902;12.472;2023-06-22T04:23:06;18.98;;;6.90;;
26271;SDS011;13997;48.902;12.472;2023-06-22T04:25:32;15.52;;;7.45;;
26271;SDS011;13997;48.902;12.472;2023-06-22T04:27:57;13.32;;;6.95;;
26271;SDS011;13997;48.902;12.472;2023-06-22T04:30:23;16.70;;;7.78;;
26271;SDS011;13997;48.902;12.472;2023-06-22T04:32:48;15.43;;;7.30;;
26271;SDS011;13997;48.902;12.472;2023-06-22T04:35:21;15.75;;;7.68;;
26271;SDS011;13997;48.902;12.472;2023-06-22T04:37:47;10.98;;;7.30;;
26271;SDS011;13997;48.902;12.472;2023-06-22T04:40:13;14.60;;;8.18;;
26271;SDS011;13997;48.902;12.472;2023-06-22T04:42:39;15.82;;;9.02;;
26271;SDS011;13997;48.902;12.472;2023-06-22T04:45:05;17.10;;;8.60;;
26271;SDS011;13997;48.902;12.472;2023-06-22T04:47:30;11.98;;;8.48;;
26271;SDS011;13997;48.902;12.472;2023-06-22T04:49:56;14.68;;;7.93;;
26271;SDS011;13997;48.902;12.472;2023-06-22T04:52:22;14.65;;;8.57;;
26271;SDS011;13997;48.902;12.472;2023-06-22T04:54:47;19.02;;;7.72;;
26271;SDS011;13997;48.902;12.472;2023-06-22T04:57:13;14.98;;;8.38;;
26271;SDS011;13997;48.902;12.472;2023-06-22T04:59:40;19.38;;;7.97;;
26271;SDS011;13997;48.902;12.472;2023-06-22T05:02:06;14.32;;;7.68;;
26271;SDS011;13997;48.902;12.472;2023-06-22T05:04:33;19.08;;;8.05;;
26271;SDS011;13997;48.902;12.472;2023-06-22T05:07:00;16.23;;;8.57;;
26271;SDS011;13997;48.902;12.472;2023-06-22T05:09:27;10.75;;;7.43;;
26271;SDS011;13997;48.902;12.472;2023-06-22T05:11:53;18.42;;;8.07;;
26271;SDS011;13997;48.902;12.472;2023-06-22T05:14:18;14.20;;;6.75;;
26271;SDS011;13997;48.902;12.472;2023-06-22T05:16:44;13.50;;;7.20;;
26271;SDS011;13997;48.902;12.472;2023-06-22T05:19:10;15.75;;;6.97;;
26271;SDS011;13997;48.902;12.472;2023-06-22T05:21:36;14.15;;;7.72;;
26271;SDS011;13997;48.902;12.472;2023-06-22T05:24:02;11.52;;;6.65;;
26271;SDS011;13997;48.902;12.472;2023-06-22T05:26:29;13.80;;;7.07;;
26271;SDS011;13997;48.902;12.472;2023-06-22T05:28:55;15.73;;;8.10;;
26271;SDS011;13997;48.902;12.472;2023-06-22T05:31:22;12.90;;;7.22;;
26271;SDS011;13997;48.902;12.472;2023-06-22T05:33:48;15.23;;;6.90;;
26271;SDS011;13997;48.902;12.472;2023-06-22T05:36:14;11.93;;;7.45;;
26271;SDS011;13997;48.902;12.472;2023-06-22T05:38:40;15.82;;;6.72;;
26271;SDS011;13997;48.902;12.472;2023-06-22T05:41:06;13.05;;;7.43;;
26271;SDS011;13997;48.902;12.472;2023-06-22T05:43:32;18.20;;;7.63;;
26271;SDS011;13997;48.902;12.472;2023-06-22T05:45:57;8.65;;;6.72;;
26271;SDS011;13997;48.902;12.472;2023-06-22T05:48:24;13.68;;;6.75;;
26271;SDS011;13997;48.902;12.472;2023-06-22T05:50:50;12.40;;;7.10;;
26271;SDS011;13997;48.902;12.472;2023-06-22T05:53:15;18.40;;;7.43;;
26271;SDS011;13997;48.902;12.472;2023-06-22T05:55:41;13.65;;;7.68;;
26271;SDS011;13997;48.902;12.472;2023-06-22T05:58:07;12.93;;;6.70;;
26271;SDS011;13997;48.902;12.472;2023-06-22T06:00:33;12.23;;;6.85;;
26271;SDS011;13997;48.902;12.472;2023-06-22T06:02:59;15.05;;;6.55;;
26271;SDS011;13997;48.902;12.472;2023-06-22T06:05:32;14.57;;;7.15;;
26271;SDS011;13997;48.902;12.472;2023-06-22T06:07:59;13.93;;;7.10;;
26271;SDS011;13997;48.902;12.472;2023-06-22T06:10:25;14.20;;;7.15;;
26271;SDS011;13997;48.902;12.472;2023-06-22T06:12:51;17.30;;;6.97;;
26271;SDS011;13997;48.902;12.472;2023-06-22T06:15:17;8.75;;;6.07;;
26271;SDS011;13997;48.902;12.472;2023-06-22T06:17:46;14.48;;;7.38;;
26271;SDS011;13997;48.902;12.472;2023-06-22T06:20:12;14.73;;;6.53;;
26271;SDS011;13997;48.902;12.472;2023-06-22T06:22:38;12.98;;;6.90;;
26271;SDS011;13997;48.902;12.472;2023-06-22T06:25:04;15.32;;;6.78;;
26271;SDS011;13997;48.902;12.472;2023-06-22T06:27:30;13.20;;;6.05;;
26271;SDS011;13997;48.902;12.472;2023-06-22T06:29:56;11.35;;;5.95;;
26271;SDS011;13997;48.902;12.472;2023-06-22T06:32:22;14.15;;;6.90;;
26271;SDS011;13997;48.902;12.472;2023-06-22T06:34:48;15.10;;;6.80;;
26271;SDS011;13997;48.902;12.472;2023-06-22T06:37:13;14.05;;;7.03;;
26271;SDS011;13997;48.902;12.472;2023-06-22T06:39:39;14.82;;;6.65;;
26271;SDS011;13997;48.902;12.472;2023-06-22T06:42:04;9.93;;;7.20;;
26271;SDS011;13997;48.902;12.472;2023-06-22T06:44:31;16.88;;;7.43;;
26271;SDS011;13997;48.902;12.472;2023-06-22T06:46:56;16.77;;;7.53;;
26271;SDS011;13997;48.902;12.472;2023-06-22T06:49:22;11.55;;;6.75;;
26271;SDS011;13997;48.902;12.472;2023-06-22T06:51:48;10.70;;;6.30;;
26271;SDS011;13997;48.902;12.472;2023-06-22T06:54:14;19.42;;;6.40;;
26271;SDS011;13997;48.902;12.472;2023-06-22T06:56:40;12.52;;;6.70;;
26271;SDS011;13997;48.902;12.472;2023-06-22T06:59:09;13.18;;;6.78;;
26271;SDS011;13997;48.902;12.472;2023-06-22T07:01:35;12.27;;;6.65;;
26271;SDS011;13997;48.902;12.472;2023-06-22T07:04:01;14.85;;;7.55;;
26271;SDS011;13997;48.902;12.472;2023-06-22T07:06:26;13.05;;;7.50;;
26271;SDS011;13997;48.902;12.472;2023-06-22T07:08:55;11.95;;;7.07;;
26271;SDS011;13997;48.902;12.472;2023-06-22T07:11:20;17.08;;;8.23;;
26271;SDS011;13997;48.902;12.472;2023-06-22T07:13:46;12.88;;;7.28;;
26271;SDS011;13997;48.902;12.472;2023-06-22T07:16:11;14.60;;;7.18;;
26271;SDS011;13997;48.902;12.472;2023-06-22T07:18:39;11.60;;;6.35;;
26271;SDS011;13997;48.902;12.472;2023-06-22T07:21:04;15.95;;;7.60;;
26271;SDS011;13997;48.902;12.472;2023-06-22T07:23:31;13.35;;;7.60;;
26271;SDS011;13997;48.902;12.472;2023-06-22T07:25:57;16.40;;;7.25;;
26271;SDS011;13997;48.902;12.472;2023-06-22T07:28:26;13.45;;;7.65;;
26271;SDS011;13997;48.902;12.472;2023-06-22T07:30:52;11.68;;;7.15;;
26271;SDS011;13997;48.902;12.472;2023-06-22T07:33:17;15.63;;;6.80;;
26271;SDS011;13997;48.902;12.472;2023-06-22T07:35:43;13.48;;;6.90;;
26271;SDS011;13997;48.902;12.472;2023-06-22T07:38:09;13.90;;;6.95;;
26271;SDS011;13997;48.902;12.472;2023-06-22T07:40:35;10.63;;;5.95;;
26271;SDS011;13997;48.902;12.472;2023-06-22T07:43:02;14.88;;;6.72;;
26271;SDS011;13997;48.902;12.472;2023-06-22T07:45:28;14.43;;;6.30;;
26271;SDS011;13997;48.902;12.472;2023-06-22T07:47:54;19.00;;;6.60;;
26271;SDS011;13997;48.902;12.472;2023-06-22T07:50:20;14.45;;;7.28;;
26271;SDS011;13997;48.902;12.472;2023-06-22T07:52:46;11.73;;;6.22;;
26271;SDS011;13997;48.902;12.472;2023-06-22T07:55:13;10.88;;;5.80;;
26271;SDS011;13997;48.902;12.472;2023-06-22T07:57:39;12.43;;;6.03;;
26271;SDS011;13997;48.902;12.472;2023-06-22T08:00:07;8.68;;;5.25;;
26271;SDS011;13997;48.902;12.472;2023-06-22T08:02:41;12.10;;;5.18;;
26271;SDS011;13997;48.902;12.472;2023-06-22T08:05:07;11.48;;;5.05;;
26271;SDS011;13997;48.902;12.472;2023-06-22T08:07:37;15.68;;;5.38;;
26271;SDS011;13997;48.902;12.472;2023-06-22T08:10:04;12.60;;;5.45;;
26271;SDS011;13997;48.902;12.472;2023-06-22T08:12:30;12.68;;;5.18;;
26271;SDS011;13997;48.902;12.472;2023-06-22T08:14:56;12.52;;;5.82;;
26271;SDS011;13997;48.902;12.472;2023-06-22T08:17:23;10.15;;;5.22;;
26271;SDS011;13997;48.902;12.472;2023-06-22T08:19:49;11.50;;;5.80;;
26271;SDS011;13997;48.902;12.472;2023-06-22T08:22:15;9.90;;;5.35;;
26271;SDS011;13997;48.902;12.472;2023-06-22T08:24:41;15.20;;;5.32;;
26271;SDS011;13997;48.902;12.472;2023-06-22T08:27:07;10.65;;;5.40;;
26271;SDS011;13997;48.902;12.472;2023-06-22T08:29:34;13.23;;;5.32;;
26271;SDS011;13997;48.902;12.472;2023-06-22T08:32:00;8.65;;;5.47;;
26271;SDS011;13997;48.902;12.472;2023-06-22T08:34:26;9.68;;;5.70;;
26271;SDS011;13997;48.902;12.472;2023-06-22T08:36:53;9.55;;;5.60;;
26271;SDS011;13997;48.902;12.472;2023-06-22T08:39:19;11.43;;;5.05;;
26271;SDS011;13997;48.902;12.472;2023-06-22T08:41:46;7.95;;;4.95;;
26271;SDS011;13997;48.902;12.472;2023-06-22T08:44:12;13.80;;;5.38;;
26271;SDS011;13997;48.902;12.472;2023-06-22T08:46:38;11.48;;;4.70;;
26271;SDS011;13997;48.902;12.472;2023-06-22T08:49:05;11.00;;;4.72;;
26271;SDS011;13997;48.902;12.472;2023-06-22T08:51:32;9.40;;;4.68;;
26271;SDS011;13997;48.902;12.472;2023-06-22T08:53:58;10.38;;;4.82;;
26271;SDS011;13997;48.902;12.472;2023-06-22T08:56:24;15.85;;;5.65;;
26271;SDS011;13997;48.902;12.472;2023-06-22T08:58:49;14.02;;;4.82;;
26271;SDS011;13997;48.902;12.472;2023-06-22T09:01:15;11.68;;;5.60;;
26271;SDS011;13997;48.902;12.472;2023-06-22T09:03:41;8.45;;;4.85;;
26271;SDS011;13997;48.902;12.472;2023-06-22T09:06:07;15.20;;;5.47;;
26271;SDS011;13997;48.902;12.472;2023-06-22T09:08:34;17.85;;;5.20;;
26271;SDS011;13997;48.902;12.472;2023-06-22T09:11:00;8.52;;;4.70;;
26271;SDS011;13997;48.902;12.472;2023-06-22T09:13:27;11.63;;;5.03;;
26271;SDS011;13997;48.902;12.472;2023-06-22T09:15:55;15.00;;;4.70;;
26271;SDS011;13997;48.902;12.472;2023-06-22T09:18:21;8.68;;;4.60;;
26271;SDS011;13997;48.902;12.472;2023-06-22T09:20:46;15.88;;;4.95;;
26271;SDS011;13997;48.902;12.472;2023-06-22T09:23:12;14.48;;;5.35;;
26271;SDS011;13997;48.902;12.472;2023-06-22T09:25:37;11.52;;;4.80;;
26271;SDS011;13997;48.902;12.472;2023-06-22T09:31:25;13.68;;;5.32;;
26271;SDS011;13997;48.902;12.472;2023-06-22T09:33:53;13.00;;;5.20;;
26271;SDS011;13997;48.902;12.472;2023-06-22T09:36:22;15.98;;;4.70;;
26271;SDS011;13997;48.902;12.472;2023-06-22T09:38:48;10.90;;;4.68;;
26271;SDS011;13997;48.902;12.472;2023-06-22T09:41:20;15.77;;;5.25;;
26271;SDS011;13997;48.902;12.472;2023-06-22T09:43:45;6.40;;;5.00;;
26271;SDS011;13997;48.902;12.472;2023-06-22T09:46:11;17.25;;;5.50;;
26271;SDS011;13997;48.902;12.472;2023-06-22T09:48:36;11.05;;;4.75;;
26271;SDS011;13997;48.902;12.472;2023-06-22T09:51:02;12.63;;;5.30;;
26271;SDS011;13997;48.902;12.472;2023-06-22T09:56:49;22.70;;;5.05;;
26271;SDS011;13997;48.902;12.472;2023-06-22T09:59:14;12.70;;;5.13;;
26271;SDS011;13997;48.902;12.472;2023-06-22T10:01:40;13.55;;;5.72;;
26271;SDS011;13997;48.902;12.472;2023-06-22T10:04:06;15.63;;;4.80;;
26271;SDS011;13997;48.902;12.472;2023-06-22T10:06:31;17.98;;;5.05;;
26271;SDS011;13997;48.902;12.472;2023-06-22T10:08:57;10.57;;;4.80;;
26271;SDS011;13997;48.902;12.472;2023-06-22T10:11:22;13.23;;;5.50;;
26271;SDS011;13997;48.902;12.472;2023-06-22T10:13:54;13.13;;;5.20;;
26271;SDS011;13997;48.902;12.472;2023-06-22T10:16:19;9.30;;;5.28;;
26271;SDS011;13997;48.902;12.472;2023-06-22T10:18:45;13.60;;;5.40;;
26271;SDS011;13997;48.902;12.472;2023-06-22T10:21:11;15.10;;;5.60;;
26271;SDS011;13997;48.902;12.472;2023-06-22T10:23:36;20.23;;;5.18;;
26271;SDS011;13997;48.902;12.472;2023-06-22T10:26:02;11.25;;;5.10;;
26271;SDS011;13997;48.902;12.472;2023-06-22T10:28:27;12.75;;;4.95;;
26271;SDS011;13997;48.902;12.472;2023-06-22T10:30:53;12.73;;;4.90;;
26271;SDS011;13997;48.902;12.472;2023-06-22T10:33:18;11.68;;;5.07;;
26271;SDS011;13997;48.902;12.472;2023-06-22T10:35:44;12.40;;;5.35;;
26271;SDS011;13997;48.902;12.472;2023-06-22T10:38:09;11.18;;;4.93;;
26271;SDS011;13997;48.902;12.472;2023-06-22T10:40:35;15.20;;;5.10;;
26271;SDS011;13997;48.902;12.472;2023-06-22T10:43:01;15.85;;;5.07;;
26271;SDS011;13997;48.902;12.472;2023-06-22T10:45:26;9.63;;;4.68;;
26271;SDS011;13997;48.902;12.472;2023-06-22T10:47:52;10.05;;;5.20;;
26271;SDS011;13997;48.902;12.472;2023-06-22T10:50:18;10.88;;;4.88;;
26271;SDS011;13997;48.902;12.472;2023-06-22T10:52:45;17.70;;;5.95;;
26271;SDS011;13997;48.902;12.472;2023-06-22T10:55:10;18.48;;;5.45;;
26271;SDS011;13997;48.902;12.472;2023-06-22T10:57:36;7.93;;;4.72;;
26271;SDS011;13997;48.902;12.472;2023-06-22T11:00:04;11.07;;;5.15;;
26271;SDS011;13997;48.902;12.472;2023-06-22T11:02:31;17.17;;;5.20;;
26271;SDS011;13997;48.902;12.472;2023-06-22T11:04:57;18.55;;;5.30;;
26271;SDS011;13997;48.902;12.472;2023-06-22T11:07:25;10.85;;;4.53;;
26271;SDS011;13997;48.902;12.472;2023-06-22T11:09:52;13.23;;;4.82;;
26271;SDS011;13997;48.902;12.472;2023-06-22T11:12:18;13.70;;;5.05;;
26271;SDS011;13997;48.902;12.472;2023-06-22T11:14:43;12.30;;;4.95;;
26271;SDS011;13997;48.902;12.472;2023-06-22T11:17:09;11.40;;;4.50;;
26271;SDS011;13997;48.902;12.472;2023-06-22T11:19:34;14.63;;;4.70;;
26271;SDS011;13997;48.902;12.472;2023-06-22T11:22:01;11.02;;;4.97;;
26271;SDS011;13997;48.902;12.472;2023-06-22T11:24:27;12.05;;;5.05;;
26271;SDS011;13997;48.902;12.472;2023-06-22T11:26:52;13.18;;;4.72;;
26271;SDS011;13997;48.902;12.472;2023-06-22T11:29:18;10.77;;;4.43;;
26271;SDS011;13997;48.902;12.472;2023-06-22T11:31:43;23.55;;;5.72;;
26271;SDS011;13997;48.902;12.472;2023-06-22T11:34:09;18.73;;;4.97;;
26271;SDS011;13997;48.902;12.472;2023-06-22T11:36:34;23.30;;;4.80;;
26271;SDS011;13997;48.902;12.472;2023-06-22T11:39:00;14.38;;;4.70;;
26271;SDS011;13997;48.902;12.472;2023-06-22T11:41:26;21.23;;;5.20;;
26271;SDS011;13997;48.902;12.472;2023-06-22T11:43:52;19.80;;;4.80;;
26271;SDS011;13997;48.902;12.472;2023-06-22T11:46:18;16.02;;;4.80;;
26271;SDS011;13997;48.902;12.472;2023-06-22T11:48:43;13.63;;;4.57;;
26271;SDS011;13997;48.902;12.472;2023-06-22T11:51:09;12.90;;;4.50;;
26271;SDS011;13997;48.902;12.472;2023-06-22T11:53:35;9.05;;;4.80;;
26271;SDS011;13997;48.902;12.472;2023-06-22T11:56:00;15.48;;;4.50;;
26271;SDS011;13997;48.902;12.472;2023-06-22T11:58:26;12.48;;;4.43;;
26271;SDS011;13997;48.902;12.472;2023-06-22T12:00:53;12.75;;;4.40;;
26271;SDS011;13997;48.902;12.472;2023-06-22T12:03:19;12.30;;;4.47;;
26271;SDS011;13997;48.902;12.472;2023-06-22T12:05:49;9.48;;;4.45;;
26271;SDS011;13997;48.902;12.472;2023-06-22T12:08:18;17.45;;;4.80;;
26271;SDS011;13997;48.902;12.472;2023-06-22T12:10:44;16.73;;;5.20;;
26271;SDS011;13997;48.902;12.472;2023-06-22T12:13:10;14.25;;;4.53;;
26271;SDS011;13997;48.902;12.472;2023-06-22T12:15:35;12.40;;;4.28;;
26271;SDS011;13997;48.902;12.472;2023-06-22T12:18:01;11.73;;;4.43;;
26271;SDS011;13997;48.902;12.472;2023-06-22T12:20:27;15.40;;;4.57;;
26271;SDS011;13997;48.902;12.472;2023-06-22T12:22:52;15.38;;;4.93;;
26271;SDS011;13997;48.902;12.472;2023-06-22T12:25:20;11.80;;;4.55;;
26271;SDS011;13997;48.902;12.472;2023-06-22T12:27:46;19.95;;;4.90;;
26271;SDS011;13997;48.902;12.472;2023-06-22T12:30:12;18.02;;;4.22;;
26271;SDS011;13997;48.902;12.472;2023-06-22T12:32:37;13.05;;;4.20;;
26271;SDS011;13997;48.902;12.472;2023-06-22T12:35:03;12.35;;;4.38;;
26271;SDS011;13997;48.902;12.472;2023-06-22T12:37:29;16.90;;;4.72;;
26271;SDS011;13997;48.902;12.472;2023-06-22T12:39:56;13.00;;;4.15;;
26271;SDS011;13997;48.902;12.472;2023-06-22T12:42:22;13.20;;;4.93;;
26271;SDS011;13997;48.902;12.472;2023-06-22T12:44:47;13.30;;;4.43;;
26271;SDS011;13997;48.902;12.472;2023-06-22T12:47:13;19.58;;;4.63;;
26271;SDS011;13997;48.902;12.472;2023-06-22T12:49:38;13.52;;;5.63;;
26271;SDS011;13997;48.902;12.472;2023-06-22T12:52:10;20.48;;;5.15;;
26271;SDS011;13997;48.902;12.472;2023-06-22T12:54:38;12.38;;;4.38;;
26271;SDS011;13997;48.902;12.472;2023-06-22T12:57:04;17.15;;;3.97;;
26271;SDS011;13997;48.902;12.472;2023-06-22T12:59:30;11.27;;;4.28;;
26271;SDS011;13997;48.902;12.472;2023-06-22T13:01:55;20.52;;;4.45;;
26271;SDS011;13997;48.902;12.472;2023-06-22T13:04:21;18.60;;;4.28;;
26271;SDS011;13997;48.902;12.472;2023-06-22T13:06:46;14.95;;;4.20;;
26271;SDS011;13997;48.902;12.472;2023-06-22T13:09:15;13.23;;;4.18;;
26271;SDS011;13997;48.902;12.472;2023-06-22T13:11:42;22.13;;;4.73;;
26271;SDS011;13997;48.902;12.472;2023-06-22T13:14:08;12.27;;;4.85;;
26271;SDS011;13997;48.902;12.472;2023-06-22T13:16:34;14.63;;;4.38;;
26271;SDS011;13997;48.902;12.472;2023-06-22T13:18:59;19.27;;;4.20;;
26271;SDS011;13997;48.902;12.472;2023-06-22T13:21:25;13.75;;;4.45;;
26271;SDS011;13997;48.902;12.472;2023-06-22T13:23:51;19.45;;;4.40;;
26271;SDS011;13997;48.902;12.472;2023-06-22T13:26:17;25.02;;;5.05;;
26271;SDS011;13997;48.902;12.472;2023-06-22T13:28:43;15.38;;;4.63;;
26271;SDS011;13997;48.902;12.472;2023-06-22T13:31:09;17.23;;;4.40;;
26271;SDS011;13997;48.902;12.472;2023-06-22T13:33:35;15.95;;;4.13;;
26271;SDS011;13997;48.902;12.472;2023-06-22T13:36:03;13.02;;;4.30;;
26271;SDS011;13997;48.902;12.472;2023-06-22T13:38:31;12.05;;;4.53;;
26271;SDS011;13997;48.902;12.472;2023-06-22T13:40:57;14.38;;;4.57;;
26271;SDS011;13997;48.902;12.472;2023-06-22T13:43:24;23.08;;;4.93;;
26271;SDS011;13997;48.902;12.472;2023-06-22T13:45:50;14.00;;;4.72;;
26271;SDS011;13997;48.902;12.472;2023-06-22T13:48:16;17.17;;;4.60;;
26271;SDS011;13997;48.902;12.472;2023-06-22T13:50:42;22.98;;;4.55;;
26271;SDS011;13997;48.902;12.472;2023-06-22T13:53:08;15.30;;;4.28;;
26271;SDS011;13997;48.902;12.472;2023-06-22T13:55:34;20.85;;;5.18;;
26271;SDS011;13997;48.902;12.472;2023-06-22T13:58:00;20.10;;;4.40;;
26271;SDS011;13997;48.902;12.472;2023-06-22T14:00:26;15.13;;;4.15;;
26271;SDS011;13997;48.902;12.472;2023-06-22T14:02:53;19.90;;;4.93;;
26271;SDS011;13997;48.902;12.472;2023-06-22T14:05:19;19.58;;;4.28;;
26271;SDS011;13997;48.902;12.472;2023-06-22T14:07:45;16.88;;;5.30;;
26271;SDS011;13997;48.902;12.472;2023-06-22T14:10:11;26.52;;;4.80;;
26271;SDS011;13997;48.902;12.472;2023-06-22T14:12:37;21.67;;;4.50;;
26271;SDS011;13997;48.902;12.472;2023-06-22T14:15:04;25.30;;;4.28;;
26271;SDS011;13997;48.902;12.472;2023-06-22T14:17:29;14.18;;;3.70;;
26271;SDS011;13997;48.902;12.472;2023-06-22T14:19:55;20.67;;;5.30;;
26271;SDS011;13997;48.902;12.472;2023-06-22T14:22:21;16.02;;;4.35;;
26271;SDS011;13997;48.902;12.472;2023-06-22T14:24:47;16.25;;;4.60;;
26271;SDS011;13997;48.902;12.472;2023-06-22T14:27:13;15.77;;;4.47;;
26271;SDS011;13997;48.902;12.472;2023-06-22T14:29:38;17.30;;;4.30;;
26271;SDS011;13997;48.902;12.472;2023-06-22T14:32:04;14.13;;;4.30;;
26271;SDS011;13997;48.902;12.472;2023-06-22T14:34:31;19.42;;;4.72;;
26271;SDS011;13997;48.902;12.472;2023-06-22T14:37:01;18.83;;;4.60;;